createdAt,value
2018-06-15T00:00:16.395Z,0.00
2018-06-15T00:01:16.395Z,0.00
2018-06-15T00:02:16.402Z,0.00
2018-06-15T00:03:16.401Z,0.00
2018-06-15T00:04:16.401Z,0.00
2018-06-15T00:05:16.401Z,0.00
2018-06-15T00:06:16.404Z,0.00
2018-06-15T00:07:16.409Z,0.00
2018-06-15T00:08:16.409Z,0.00
2018-06-15T00:09:16.411Z,0.00
2018-06-15T00:10:16.413Z,0.00
2018-06-15T00:11:16.425Z,0.00
2018-06-15T00:12:16.427Z,0.00
2018-06-15T00:13:16.417Z,0.00
2018-06-15T00:14:16.424Z,0.00
2018-06-15T00:15:16.429Z,0.00
2018-06-15T00:16:16.423Z,0.00
2018-06-15T00:17:16.425Z,0.00
2018-06-15T00:18:16.426Z,0.00
2018-06-15T00:19:16.432Z,0.00
2018-06-15T00:20:16.433Z,0.00
2018-06-15T00:21:16.433Z,0.00
2018-06-15T00:22:16.436Z,0.00
2018-06-15T00:23:16.437Z,0.00
2018-06-15T00:24:16.439Z,0.00
2018-06-15T00:25:16.448Z,0.00
2018-06-15T00:26:16.450Z,0.00
2018-06-15T00:27:16.457Z,0.00
2018-06-15T00:28:16.444Z,0.00
2018-06-15T00:29:16.452Z,0.00
2018-06-15T00:30:16.451Z,0.00
2018-06-15T00:31:16.456Z,0.00
2018-06-15T00:32:16.457Z,0.00
2018-06-15T00:33:16.464Z,0.00
2018-06-15T00:34:16.476Z,0.00
2018-06-15T00:35:16.463Z,0.00
2018-06-15T00:36:16.464Z,0.00
2018-06-15T00:37:16.469Z,0.00
2018-06-15T00:38:16.471Z,0.00
2018-06-15T00:39:16.471Z,0.00
2018-06-15T00:40:16.471Z,0.00
2018-06-15T00:41:16.471Z,0.00
2018-06-15T00:42:16.473Z,0.00
2018-06-15T00:43:16.482Z,0.00
2018-06-15T00:44:16.480Z,0.00
2018-06-15T00:45:16.480Z,0.00
2018-06-15T00:46:16.486Z,0.00
2018-06-15T00:47:16.491Z,0.00
2018-06-15T00:48:16.488Z,0.00
2018-06-15T00:49:16.482Z,0.00
2018-06-15T00:50:16.489Z,0.00
2018-06-15T00:51:16.499Z,0.00
2018-06-15T00:52:16.497Z,0.00
2018-06-15T00:53:16.496Z,0.00
2018-06-15T00:54:16.506Z,0.00
2018-06-15T00:55:16.511Z,0.00
2018-06-15T00:56:16.501Z,0.00
2018-06-15T00:57:16.503Z,0.00
2018-06-15T00:58:16.505Z,0.00
2018-06-15T00:59:16.507Z,0.00
2018-06-15T01:00:16.507Z,0.00
2018-06-15T01:01:16.509Z,0.00
2018-06-15T01:02:16.514Z,0.00
2018-06-15T01:03:16.535Z,0.00
2018-06-15T01:04:16.512Z,0.00
2018-06-15T01:05:16.515Z,0.00
2018-06-15T01:06:16.516Z,0.00
2018-06-15T01:07:16.523Z,0.00
2018-06-15T01:08:16.516Z,0.00
2018-06-15T01:09:16.524Z,0.00
2018-06-15T01:10:16.524Z,0.00
2018-06-15T01:11:16.523Z,0.00
2018-06-15T01:12:16.527Z,0.00
2018-06-15T01:13:16.534Z,0.00
2018-06-15T01:14:16.552Z,0.00
2018-06-15T01:15:16.551Z,0.00
2018-06-15T01:16:16.532Z,0.00
2018-06-15T01:17:16.532Z,0.00
2018-06-15T01:18:16.538Z,0.00
2018-06-15T01:19:16.538Z,0.00
2018-06-15T01:20:16.538Z,0.00
2018-06-15T01:21:16.540Z,0.00
2018-06-15T01:22:16.542Z,0.00
2018-06-15T01:23:16.540Z,0.00
2018-06-15T01:24:16.544Z,0.00
2018-06-15T01:25:16.547Z,0.00
2018-06-15T01:26:16.554Z,0.00
2018-06-15T01:27:16.543Z,0.00
2018-06-15T01:28:16.547Z,0.00
2018-06-15T01:29:16.547Z,0.00
2018-06-15T01:30:16.557Z,0.00
2018-06-15T01:31:16.552Z,0.00
2018-06-15T01:32:16.565Z,0.00
2018-06-15T01:33:16.565Z,0.00
2018-06-15T01:34:16.558Z,0.00
2018-06-15T01:35:16.566Z,0.00
2018-06-15T01:36:16.561Z,0.00
2018-06-15T01:37:16.565Z,0.00
2018-06-15T01:38:16.563Z,0.00
2018-06-15T01:39:16.567Z,0.00
2018-06-15T01:40:16.569Z,0.00
2018-06-15T01:41:16.573Z,0.00
2018-06-15T01:42:16.588Z,0.00
2018-06-15T01:43:16.579Z,0.00
2018-06-15T01:44:16.572Z,0.00
2018-06-15T01:45:16.579Z,0.00
2018-06-15T01:46:16.578Z,0.00
2018-06-15T01:47:16.579Z,0.00
2018-06-15T01:48:16.581Z,0.00
2018-06-15T01:49:16.578Z,0.00
2018-06-15T01:50:16.583Z,0.00
2018-06-15T01:51:16.585Z,0.00
2018-06-15T01:52:16.586Z,0.00
2018-06-15T01:53:16.609Z,0.00
2018-06-15T01:54:16.586Z,0.00
2018-06-15T01:55:16.589Z,0.00
2018-06-15T01:56:16.587Z,0.00
2018-06-15T01:57:16.592Z,0.00
2018-06-15T01:58:16.594Z,0.00
2018-06-15T01:59:16.596Z,0.00
2018-06-15T02:00:16.597Z,0.00
2018-06-15T02:01:16.649Z,0.00
2018-06-15T02:02:16.602Z,0.00
2018-06-15T02:03:16.601Z,0.00
2018-06-15T02:04:16.606Z,0.00
2018-06-15T02:05:16.606Z,0.00
2018-06-15T02:06:16.609Z,0.00
2018-06-15T02:07:16.604Z,0.00
2018-06-15T02:08:16.608Z,0.00
2018-06-15T02:09:16.614Z,0.00
2018-06-15T02:10:16.614Z,0.00
2018-06-15T02:11:16.611Z,0.00
2018-06-15T02:12:16.613Z,0.00
2018-06-15T02:13:16.622Z,0.00
2018-06-15T02:14:16.616Z,0.00
2018-06-15T02:15:16.622Z,0.00
2018-06-15T02:16:16.619Z,0.00
2018-06-15T02:17:16.620Z,0.00
2018-06-15T02:18:16.623Z,0.00
2018-06-15T02:19:16.624Z,0.00
2018-06-15T02:20:16.625Z,0.00
2018-06-15T02:21:16.627Z,0.00
2018-06-15T02:22:16.629Z,0.00
2018-06-15T02:23:16.630Z,0.00
2018-06-15T02:24:16.632Z,0.00
2018-06-15T02:25:16.633Z,0.00
2018-06-15T02:26:16.632Z,0.00
2018-06-15T02:27:16.634Z,0.00
2018-06-15T02:28:16.636Z,0.00
2018-06-15T02:29:16.643Z,0.00
2018-06-15T02:30:16.638Z,0.00
2018-06-15T02:31:16.656Z,0.00
2018-06-15T02:32:16.641Z,0.00
2018-06-15T02:33:16.644Z,0.00
2018-06-15T02:34:16.646Z,0.00
2018-06-15T02:35:16.651Z,0.00
2018-06-15T02:36:16.650Z,0.00
2018-06-15T02:37:16.649Z,0.00
2018-06-15T02:38:16.653Z,0.00
2018-06-15T02:39:16.656Z,0.00
2018-06-15T02:40:16.656Z,0.00
2018-06-15T02:41:16.659Z,0.00
2018-06-15T02:42:16.659Z,0.00
2018-06-15T02:43:16.663Z,0.00
2018-06-15T02:44:16.667Z,0.00
2018-06-15T02:45:16.718Z,0.00
2018-06-15T02:46:16.661Z,0.00
2018-06-15T02:47:16.665Z,0.00
2018-06-15T02:48:16.666Z,0.00
2018-06-15T02:49:16.670Z,0.00
2018-06-15T02:50:16.670Z,0.00
2018-06-15T02:51:16.688Z,0.00
2018-06-15T02:52:16.671Z,0.00
2018-06-15T02:53:16.672Z,0.00
2018-06-15T02:54:16.678Z,0.00
2018-06-15T02:55:16.676Z,4.00
2018-06-15T02:56:16.690Z,4.00
2018-06-15T02:57:16.680Z,4.00
2018-06-15T02:58:16.683Z,0.00
2018-06-15T02:59:16.684Z,4.00
2018-06-15T03:00:16.689Z,4.00
2018-06-15T03:01:16.690Z,4.00
2018-06-15T03:02:16.688Z,4.00
2018-06-15T03:21:00.077Z,24.00
2018-06-15T03:22:00.056Z,24.00
2018-06-15T03:23:00.050Z,24.00
2018-06-15T03:24:00.047Z,28.00
2018-06-15T03:25:00.110Z,32.00
2018-06-15T03:26:00.040Z,32.00
2018-06-15T03:27:00.040Z,36.00
2018-06-15T03:28:00.038Z,40.00
2018-06-15T03:29:00.042Z,40.00
2018-06-15T03:30:00.038Z,44.00
2018-06-15T03:31:00.045Z,44.00
2018-06-15T03:32:00.039Z,48.00
2018-06-15T03:33:00.036Z,56.00
2018-06-15T03:34:00.034Z,56.00
2018-06-15T03:35:00.042Z,64.00
2018-06-15T03:36:00.039Z,68.00
2018-06-15T03:37:00.040Z,72.00
2018-06-15T03:38:00.039Z,76.00
2018-06-15T03:39:00.041Z,80.00
2018-06-15T03:40:00.038Z,88.00
2018-06-15T03:41:00.074Z,92.00
2018-06-15T03:42:00.039Z,100.00
2018-06-15T03:43:00.036Z,104.00
2018-06-15T03:44:00.041Z,108.00
2018-06-15T03:45:00.041Z,112.00
2018-06-15T03:46:00.040Z,120.00
2018-06-15T03:47:00.042Z,128.00
2018-06-15T03:48:00.037Z,136.00
2018-06-15T03:49:00.042Z,144.00
2018-06-15T03:50:00.048Z,152.00
2018-06-15T03:51:00.044Z,160.00
2018-06-15T03:52:00.048Z,172.00
2018-06-15T03:53:00.045Z,180.00
2018-06-15T03:54:00.048Z,192.00
2018-06-15T03:55:00.048Z,200.00
2018-06-15T03:56:00.048Z,212.00
2018-06-15T03:57:00.048Z,224.00
2018-06-15T03:58:00.050Z,236.00
2018-06-15T03:59:00.049Z,248.00
2018-06-15T04:00:00.062Z,252.00
2018-06-15T04:01:00.057Z,260.00
2018-06-15T04:02:00.055Z,260.00
2018-06-15T04:03:00.055Z,264.00
2018-06-15T04:04:00.054Z,268.00
2018-06-15T04:05:00.057Z,276.00
2018-06-15T04:06:00.055Z,284.00
2018-06-15T04:07:00.059Z,292.00
2018-06-15T04:08:00.056Z,296.00
2018-06-15T04:09:00.066Z,304.00
2018-06-15T04:10:00.065Z,312.00
2018-06-15T04:11:00.064Z,316.00
2018-06-15T04:12:00.061Z,324.00
2018-06-15T04:13:00.139Z,340.00
2018-06-15T04:14:00.077Z,352.00
2018-06-15T04:15:00.072Z,364.00
2018-06-15T04:16:00.067Z,380.00
2018-06-15T04:17:00.080Z,400.00
2018-06-15T04:18:00.074Z,412.00
2018-06-15T04:19:00.078Z,428.00
2018-06-15T04:20:00.074Z,444.00
2018-06-15T04:21:00.074Z,464.00
2018-06-15T04:22:00.080Z,484.00
2018-06-15T04:23:00.081Z,508.00
2018-06-15T04:24:00.078Z,544.00
2018-06-15T04:25:00.085Z,580.00
2018-06-15T04:26:00.087Z,628.00
2018-06-15T04:27:00.087Z,672.00
2018-06-15T04:28:00.088Z,712.00
2018-06-15T04:29:00.221Z,756.00
2018-06-15T04:30:00.099Z,820.00
2018-06-15T04:31:00.089Z,904.00
2018-06-15T04:32:00.090Z,968.00
2018-06-15T04:33:00.090Z,1064.00
2018-06-15T04:34:00.093Z,1140.00
2018-06-15T04:35:00.098Z,1184.00
2018-06-15T04:36:00.093Z,1192.00
2018-06-15T04:37:00.098Z,1228.00
2018-06-15T04:38:00.097Z,1268.00
2018-06-15T04:39:00.099Z,1320.00
2018-06-15T04:40:00.103Z,1388.00
2018-06-15T04:41:00.104Z,1484.00
2018-06-15T04:42:00.107Z,1548.00
2018-06-15T04:43:00.107Z,1672.00
2018-06-15T04:44:00.114Z,1992.00
2018-06-15T04:45:00.205Z,2096.00
2018-06-15T04:46:00.121Z,2164.00
2018-06-15T04:47:00.123Z,2240.00
2018-06-15T04:48:00.118Z,2428.00
2018-06-15T04:49:00.119Z,2640.00
2018-06-15T04:50:00.121Z,2852.00
2018-06-15T04:51:00.122Z,2964.00
2018-06-15T04:52:00.129Z,2980.00
2018-06-15T04:53:00.131Z,3040.00
2018-06-15T04:54:00.131Z,3004.00
2018-06-15T04:55:00.131Z,2964.00
2018-06-15T04:56:00.136Z,3048.00
2018-06-15T04:57:00.137Z,3100.00
2018-06-15T04:58:00.140Z,3448.00
2018-06-15T04:59:00.144Z,3436.00
2018-06-15T05:00:00.169Z,4284.00
2018-06-15T05:01:00.151Z,5068.00
2018-06-15T05:02:00.156Z,5384.00
2018-06-15T05:03:00.155Z,5148.00
2018-06-15T05:04:00.162Z,4640.00
2018-06-15T05:05:00.163Z,4348.00
2018-06-15T05:06:00.203Z,4472.00
2018-06-15T05:07:00.172Z,5288.00
2018-06-15T05:08:00.174Z,5512.00
2018-06-15T05:09:00.176Z,5924.00
2018-06-15T05:10:00.182Z,3924.00
2018-06-15T05:11:00.186Z,3636.00
2018-06-15T05:12:00.188Z,3460.00
2018-06-15T05:13:00.196Z,4256.00
2018-06-15T05:14:00.200Z,4724.00
2018-06-15T05:15:00.210Z,5140.00
2018-06-15T05:16:00.217Z,6436.00
2018-06-15T05:17:00.215Z,7232.00
2018-06-15T05:18:00.221Z,7080.00
2018-06-15T05:19:00.224Z,6436.00
2018-06-15T05:20:00.222Z,5264.00
2018-06-15T05:21:00.236Z,6152.00
2018-06-15T05:22:00.557Z,13556.00
2018-06-15T05:23:00.245Z,11764.00
2018-06-15T05:24:00.246Z,9260.00
2018-06-15T05:25:00.253Z,6012.00
2018-06-15T05:26:00.258Z,4344.00
2018-06-15T05:27:00.266Z,4056.00
2018-06-15T05:28:00.270Z,3832.00
2018-06-15T05:29:00.282Z,3808.00
2018-06-15T05:30:00.292Z,4196.00
2018-06-15T05:31:00.292Z,6476.00
2018-06-15T05:32:00.298Z,12120.00
2018-06-15T05:33:00.300Z,11044.00
2018-06-15T05:34:00.306Z,6884.00
2018-06-15T05:35:00.321Z,4888.00
2018-06-15T05:36:00.316Z,3744.00
2018-06-15T05:37:00.319Z,3212.00
2018-06-15T05:38:00.325Z,3020.00
2018-06-15T05:39:00.331Z,2976.00
2018-06-15T05:40:00.333Z,3140.00
2018-06-15T05:41:00.342Z,3648.00
2018-06-15T05:42:00.350Z,3628.00
2018-06-15T05:43:00.353Z,4024.00
2018-06-15T05:44:00.358Z,4048.00
2018-06-15T05:45:00.362Z,4032.00
2018-06-15T05:46:00.366Z,4496.00
2018-06-15T05:47:00.376Z,4880.00
2018-06-15T05:48:00.378Z,5184.00
2018-06-15T05:49:00.387Z,4900.00
2018-06-15T05:50:00.422Z,4808.00
2018-06-15T05:51:00.390Z,4696.00
2018-06-15T05:52:00.393Z,4700.00
2018-06-15T05:53:00.398Z,4416.00
2018-06-15T05:54:00.401Z,4248.00
2018-06-15T05:55:00.413Z,4252.00
2018-06-15T05:56:00.411Z,5668.00
2018-06-15T05:57:00.421Z,9792.00
2018-06-15T05:58:00.422Z,12740.00
2018-06-15T05:59:00.430Z,14164.00
2018-06-15T06:00:00.435Z,15424.00
2018-06-15T06:01:00.439Z,16640.00
2018-06-15T06:02:00.454Z,16960.00
2018-06-15T06:03:00.454Z,16352.00
2018-06-15T06:04:00.520Z,15232.00
2018-06-15T06:05:00.469Z,17376.00
2018-06-15T06:06:00.467Z,17696.00
2018-06-15T06:07:00.483Z,16864.00
2018-06-15T06:08:00.493Z,15584.00
2018-06-15T06:09:00.500Z,15872.00
2018-06-15T06:10:00.509Z,14428.00
2018-06-15T06:11:00.520Z,14156.00
2018-06-15T06:12:00.530Z,14088.00
2018-06-15T06:13:00.549Z,12096.00
2018-06-15T06:14:00.552Z,8960.00
2018-06-15T06:15:00.550Z,7884.00
2018-06-15T06:16:00.567Z,7396.00
2018-06-15T06:17:00.603Z,6960.00
2018-06-15T06:18:00.588Z,6544.00
2018-06-15T06:19:00.593Z,6284.00
2018-06-15T06:20:00.613Z,5816.00
2018-06-15T06:21:00.613Z,5760.00
2018-06-15T06:22:00.624Z,5436.00
2018-06-15T06:23:00.631Z,5248.00
2018-06-15T06:24:00.653Z,5180.00
2018-06-15T06:25:00.652Z,5084.00
2018-06-15T06:26:00.661Z,4976.00
2018-06-15T06:27:00.667Z,4988.00
2018-06-15T06:28:00.776Z,5096.00
2018-06-15T06:29:00.690Z,5192.00
2018-06-15T06:30:00.695Z,5312.00
2018-06-15T06:31:00.700Z,5032.00
2018-06-15T06:32:00.706Z,5096.00
2018-06-15T06:33:00.718Z,5052.00
2018-06-15T06:34:00.722Z,5008.00
2018-06-15T06:35:00.730Z,5048.00
2018-06-15T06:36:00.735Z,4964.00
2018-06-15T06:37:00.745Z,4956.00
2018-06-15T06:38:00.802Z,4920.00
2018-06-15T06:39:00.757Z,4844.00
2018-06-15T06:40:00.763Z,4756.00
2018-06-15T06:41:00.774Z,4696.00
2018-06-15T06:42:00.777Z,4648.00
2018-06-15T06:43:00.783Z,4688.00
2018-06-15T06:44:00.792Z,4628.00
2018-06-15T06:45:00.796Z,4544.00
2018-06-15T06:46:00.810Z,4552.00
2018-06-15T06:47:00.820Z,4568.00
2018-06-15T06:48:00.819Z,4524.00
2018-06-15T06:49:00.826Z,4472.00
2018-06-15T06:50:00.834Z,4312.00
2018-06-15T06:51:00.839Z,4584.00
2018-06-15T06:52:00.842Z,4452.00
2018-06-15T06:53:00.848Z,4224.00
2018-06-15T06:54:00.860Z,4500.00
2018-06-15T06:55:00.862Z,4532.00
2018-06-15T06:56:00.869Z,4656.00
2018-06-15T06:57:00.880Z,4752.00
2018-06-15T06:58:00.903Z,4808.00
2018-06-15T06:59:00.891Z,4880.00
2018-06-15T07:00:00.909Z,4956.00
2018-06-15T07:01:00.897Z,5032.00
2018-06-15T07:02:00.910Z,5088.00
2018-06-15T07:03:00.919Z,5068.00
2018-06-15T07:04:00.914Z,5184.00
2018-06-15T07:05:00.919Z,5200.00
2018-06-15T07:06:00.933Z,5220.00
2018-06-15T07:07:00.940Z,5256.00
2018-06-15T07:08:00.936Z,5196.00
2018-06-15T07:09:00.960Z,5132.00
2018-06-15T07:10:00.982Z,5220.00
2018-06-15T07:11:00.954Z,5216.00
2018-06-15T07:12:00.965Z,5232.00
2018-06-15T07:13:00.973Z,5184.00
2018-06-15T07:14:00.982Z,5200.00
2018-06-15T07:15:00.980Z,5164.00
2018-06-15T07:16:00.995Z,5164.00
2018-06-15T07:17:00.997Z,5324.00
2018-06-15T07:18:01.015Z,5044.00
2018-06-15T07:19:01.014Z,4860.00
2018-06-15T07:20:01.017Z,5176.00
2018-06-15T07:21:01.018Z,4676.00
2018-06-15T07:22:01.025Z,4540.00
2018-06-15T07:23:01.029Z,4500.00
2018-06-15T07:24:01.038Z,4480.00
2018-06-15T07:25:01.042Z,4172.00
2018-06-15T07:26:01.048Z,4428.00
2018-06-15T07:27:01.049Z,4308.00
2018-06-15T07:28:01.058Z,4168.00
2018-06-15T07:29:01.070Z,4136.00
2018-06-15T07:30:01.073Z,4088.00
2018-06-15T07:31:01.080Z,4096.00
2018-06-15T07:32:01.089Z,4092.00
2018-06-15T07:33:01.089Z,4156.00
2018-06-15T07:34:01.108Z,4124.00
2018-06-15T07:35:01.105Z,3820.00
2018-06-15T07:36:01.112Z,4324.00
2018-06-15T07:37:01.117Z,4572.00
2018-06-15T07:38:01.128Z,4352.00
2018-06-15T07:39:01.128Z,4284.00
2018-06-15T07:40:01.132Z,4284.00
2018-06-15T07:41:01.133Z,4376.00
2018-06-15T07:42:01.198Z,4248.00
2018-06-15T07:43:01.142Z,4272.00
2018-06-15T07:44:01.153Z,4348.00
2018-06-15T07:45:01.160Z,4356.00
2018-06-15T07:46:01.215Z,4376.00
2018-06-15T07:47:01.171Z,4340.00
2018-06-15T07:48:01.172Z,4448.00
2018-06-15T07:49:01.187Z,4400.00
2018-06-15T07:50:01.219Z,4328.00
2018-06-15T07:51:01.192Z,4280.00
2018-06-15T07:52:01.197Z,4148.00
2018-06-15T07:53:01.200Z,4168.00
2018-06-15T07:54:01.208Z,4084.00
2018-06-15T07:55:01.213Z,4180.00
2018-06-15T07:56:01.224Z,3980.00
2018-06-15T07:57:01.223Z,3876.00
2018-06-15T07:58:01.251Z,3764.00
2018-06-15T07:59:01.236Z,3688.00
2018-06-15T08:00:01.241Z,3636.00
2018-06-15T08:01:01.245Z,3580.00
2018-06-15T08:02:01.275Z,3536.00
2018-06-15T08:03:01.261Z,3524.00
2018-06-15T08:04:01.263Z,3440.00
2018-06-15T08:05:01.273Z,3420.00
2018-06-15T08:06:01.325Z,3372.00
2018-06-15T08:07:01.286Z,3268.00
2018-06-15T08:08:01.294Z,3260.00
2018-06-15T08:09:01.300Z,3208.00
2018-06-15T08:10:01.314Z,3192.00
2018-06-15T08:11:01.314Z,3132.00
2018-06-15T08:12:01.310Z,3108.00
2018-06-15T08:13:01.322Z,3092.00
2018-06-15T08:14:01.323Z,3072.00
2018-06-15T08:15:01.332Z,3052.00
2018-06-15T08:16:01.335Z,3048.00
2018-06-15T08:17:01.361Z,2976.00
2018-06-15T08:18:01.351Z,3048.00
2018-06-15T08:19:01.356Z,3032.00
2018-06-15T08:20:01.357Z,3016.00
2018-06-15T08:21:01.378Z,2996.00
2018-06-15T08:22:01.380Z,2856.00
2018-06-15T08:23:01.400Z,2588.00
2018-06-15T08:24:01.380Z,2916.00
2018-06-15T08:25:01.390Z,2912.00
2018-06-15T08:26:01.395Z,2876.00
2018-06-15T08:27:01.405Z,2852.00
2018-06-15T08:28:01.407Z,2848.00
2018-06-15T08:29:01.409Z,3016.00
2018-06-15T08:30:01.417Z,2808.00
2018-06-15T08:31:01.423Z,2780.00
2018-06-15T08:32:01.438Z,2692.00
2018-06-15T08:33:01.439Z,2676.00
2018-06-15T08:34:01.440Z,2636.00
2018-06-15T08:35:01.458Z,2656.00
2018-06-15T08:36:01.467Z,2592.00
2018-06-15T08:37:01.462Z,2844.00
2018-06-15T08:38:01.468Z,2704.00
2018-06-15T08:39:01.477Z,2616.00
2018-06-15T08:40:01.481Z,2592.00
2018-06-15T08:41:01.475Z,2644.00
2018-06-15T08:42:01.507Z,2636.00
2018-06-15T08:43:01.516Z,2620.00
2018-06-15T08:44:01.521Z,2596.00
2018-06-15T08:45:01.525Z,2616.00
2018-06-15T08:46:01.502Z,2560.00
2018-06-15T08:47:01.547Z,2532.00
2018-06-15T08:48:01.511Z,2472.00
2018-06-15T08:49:01.526Z,2468.00
2018-06-15T08:50:01.558Z,2416.00
2018-06-15T08:51:01.540Z,2440.00
2018-06-15T08:52:01.538Z,2408.00
2018-06-15T08:53:01.554Z,2372.00
2018-06-15T08:54:01.546Z,2356.00
2018-06-15T08:55:01.558Z,2356.00
2018-06-15T08:56:01.631Z,2356.00
2018-06-15T08:57:01.557Z,2364.00
2018-06-15T08:58:01.560Z,2396.00
2018-06-15T08:59:01.573Z,2376.00
2018-06-15T09:00:01.576Z,2492.00
2018-06-15T09:01:01.575Z,2420.00
2018-06-15T09:02:01.598Z,2360.00
2018-06-15T09:03:01.588Z,2372.00
2018-06-15T09:04:01.599Z,2392.00
2018-06-15T09:05:01.595Z,2376.00
2018-06-15T09:06:01.605Z,2368.00
2018-06-15T09:07:01.613Z,2376.00
2018-06-15T09:08:01.627Z,2344.00
2018-06-15T09:09:01.623Z,2336.00
2018-06-15T09:10:01.622Z,2336.00
2018-06-15T09:11:01.636Z,2332.00
2018-06-15T09:12:01.637Z,2364.00
2018-06-15T09:13:01.747Z,2380.00
2018-06-15T09:14:01.643Z,2352.00
2018-06-15T09:15:01.652Z,2360.00
2018-06-15T09:16:01.661Z,2308.00
2018-06-15T09:17:01.676Z,2340.00
2018-06-15T09:18:01.668Z,2316.00
2018-06-15T09:19:01.671Z,2312.00
2018-06-15T09:20:01.672Z,2300.00
2018-06-15T09:21:01.675Z,2292.00
2018-06-15T09:22:01.686Z,2280.00
2018-06-15T09:23:01.692Z,2288.00
2018-06-15T09:24:01.698Z,2256.00
2018-06-15T09:25:01.711Z,2248.00
2018-06-15T09:26:01.716Z,2244.00
2018-06-15T09:27:01.718Z,2228.00
2018-06-15T09:28:01.719Z,2348.00
2018-06-15T09:29:01.729Z,2100.00
2018-06-15T09:30:01.733Z,2228.00
2018-06-15T09:31:01.736Z,2268.00
2018-06-15T09:32:01.743Z,2272.00
2018-06-15T09:33:01.752Z,2292.00
2018-06-15T09:34:01.767Z,2324.00
2018-06-15T09:35:01.762Z,2372.00
2018-06-15T09:36:01.769Z,2392.00
2018-06-15T09:37:01.807Z,2412.00
2018-06-15T09:38:01.808Z,2432.00
2018-06-15T09:39:01.888Z,2416.00
2018-06-15T09:40:01.792Z,2416.00
2018-06-15T09:41:01.809Z,2412.00
2018-06-15T09:42:01.800Z,2388.00
2018-06-15T09:43:01.813Z,2404.00
2018-06-15T09:44:12.292Z,2476.00
2018-06-15T09:45:55.238Z,2316.00
2018-06-15T09:46:55.244Z,2504.00
2018-06-15T09:47:55.258Z,2688.00
2018-06-15T09:48:55.279Z,2468.00
2018-06-15T09:49:55.312Z,2476.00
2018-06-15T09:50:55.258Z,2500.00
2018-06-15T09:51:55.263Z,2472.00
2018-06-15T09:52:55.294Z,2468.00
2018-06-15T09:53:55.333Z,2484.00
2018-06-15T09:54:55.272Z,2488.00
2018-06-15T09:55:55.379Z,2464.00
2018-06-15T09:56:55.308Z,2476.00
2018-06-15T09:57:55.325Z,2440.00
2018-06-15T09:58:55.294Z,2416.00
2018-06-15T09:59:55.307Z,2384.00
2018-06-15T10:00:55.333Z,2360.00
2018-06-15T10:01:55.326Z,2352.00
2018-06-15T10:02:55.317Z,2348.00
2018-06-15T10:03:55.325Z,2364.00
2018-06-15T10:04:55.337Z,2252.00
2018-06-15T10:05:55.413Z,2268.00
2018-06-15T10:06:55.343Z,2268.00
2018-06-15T10:07:55.352Z,2340.00
2018-06-15T10:08:55.356Z,2464.00
2018-06-15T10:09:55.394Z,2464.00
2018-06-15T10:10:55.387Z,2480.00
2018-06-15T10:11:55.396Z,2348.00
2018-06-15T10:12:55.424Z,2328.00
2018-06-15T10:13:55.394Z,2372.00
2018-06-15T10:14:55.401Z,2384.00
2018-06-15T10:15:55.425Z,2332.00
2018-06-15T10:16:55.405Z,2340.00
2018-06-15T10:17:55.414Z,2348.00
2018-06-15T10:18:55.418Z,2356.00
2018-06-15T10:19:55.449Z,2340.00
2018-06-15T10:20:55.448Z,2360.00
2018-06-15T10:21:55.475Z,2360.00
2018-06-15T10:22:55.473Z,2336.00
2018-06-15T10:23:55.464Z,2352.00
2018-06-15T10:24:55.465Z,2300.00
2018-06-15T10:25:55.493Z,2412.00
2018-06-15T10:26:55.487Z,2328.00
2018-06-15T10:27:55.479Z,2400.00
2018-06-15T10:28:55.516Z,2428.00
2018-06-15T10:29:55.544Z,2276.00
2018-06-15T10:30:55.562Z,2160.00
2018-06-15T10:31:55.542Z,2252.00
2018-06-15T10:32:55.596Z,2088.00
2018-06-15T10:33:55.582Z,2192.00
2018-06-15T10:34:55.574Z,2144.00
2018-06-15T10:35:55.579Z,2148.00
2018-06-15T10:36:55.555Z,2172.00
2018-06-15T10:37:55.571Z,2184.00
2018-06-15T10:38:55.563Z,2140.00
2018-06-15T10:39:55.564Z,2116.00
2018-06-15T10:40:55.598Z,2136.00
2018-06-15T10:41:55.596Z,2192.00
2018-06-15T10:42:55.605Z,2108.00
2018-06-15T10:43:55.610Z,2052.00
2018-06-15T10:44:55.591Z,2060.00
2018-06-15T10:45:55.661Z,2216.00
2018-06-15T10:46:55.607Z,2208.00
2018-06-15T10:47:55.621Z,2160.00
2018-06-15T10:48:55.611Z,1820.00
2018-06-15T10:49:55.649Z,2076.00
2018-06-15T10:50:55.651Z,2084.00
2018-06-15T10:51:55.675Z,2080.00
2018-06-15T10:52:55.638Z,1980.00
2018-06-15T10:53:55.676Z,2000.00
2018-06-15T10:54:55.673Z,1956.00
2018-06-15T10:55:55.658Z,1884.00
2018-06-15T10:56:55.681Z,1852.00
2018-06-15T10:57:55.783Z,1828.00
2018-06-15T10:58:55.707Z,1844.00
2018-06-15T10:59:55.698Z,1836.00
2018-06-15T11:00:55.682Z,1824.00
2018-06-15T11:01:55.736Z,1768.00
2018-06-15T11:02:55.702Z,1824.00
2018-06-15T11:03:55.731Z,1732.00
2018-06-15T11:04:55.743Z,1800.00
2018-06-15T11:05:55.727Z,1824.00
2018-06-15T11:06:55.764Z,1780.00
2018-06-15T11:07:55.722Z,1800.00
2018-06-15T11:08:55.732Z,1776.00
2018-06-15T11:09:55.752Z,1716.00
2018-06-15T11:10:55.745Z,1708.00
2018-06-15T11:11:55.760Z,1756.00
2018-06-15T11:12:55.763Z,1804.00
2018-06-15T11:13:55.762Z,1904.00
2018-06-15T11:14:55.770Z,1960.00
2018-06-15T11:15:55.831Z,1932.00
2018-06-15T11:16:55.827Z,1940.00
2018-06-15T11:17:55.784Z,2028.00
2018-06-15T11:18:55.808Z,1740.00
2018-06-15T11:19:55.822Z,1992.00
2018-06-15T11:20:55.794Z,2036.00
2018-06-15T11:21:55.805Z,2036.00
2018-06-15T11:22:55.819Z,1840.00
2018-06-15T11:23:55.828Z,1980.00
2018-06-15T11:24:55.821Z,1972.00
2018-06-15T11:25:55.873Z,1996.00
2018-06-15T11:26:55.839Z,2020.00
2018-06-15T11:27:55.843Z,2024.00
2018-06-15T11:28:55.855Z,2008.00
2018-06-15T11:29:55.857Z,1660.00
2018-06-15T11:30:55.943Z,1928.00
2018-06-15T11:31:55.869Z,2144.00
2018-06-15T11:32:56.035Z,1992.00
2018-06-15T11:33:55.906Z,2240.00
2018-06-15T11:34:55.971Z,2120.00
2018-06-15T11:35:55.895Z,2052.00
2018-06-15T11:36:55.894Z,1996.00
2018-06-15T11:37:55.954Z,2120.00
2018-06-15T11:38:55.930Z,2100.00
2018-06-15T11:39:55.945Z,2132.00
2018-06-15T11:40:55.999Z,2072.00
2018-06-15T11:41:55.927Z,2156.00
2018-06-15T11:42:55.958Z,2220.00
2018-06-15T11:43:55.945Z,2160.00
2018-06-15T11:44:55.947Z,2124.00
2018-06-15T11:45:55.980Z,2100.00
2018-06-15T11:46:56.013Z,2192.00
2018-06-15T11:47:55.968Z,2064.00
2018-06-15T11:48:56.049Z,2172.00
2018-06-15T11:49:55.999Z,2020.00
2018-06-15T11:50:56.119Z,2024.00
2018-06-15T11:51:56.022Z,2024.00
2018-06-15T11:52:56.006Z,1988.00
2018-06-15T11:53:56.060Z,2016.00
2018-06-15T11:54:56.020Z,1992.00
2018-06-15T11:55:56.021Z,1944.00
2018-06-15T11:56:56.086Z,2000.00
2018-06-15T11:57:56.036Z,2000.00
2018-06-15T11:58:56.067Z,1956.00
2018-06-15T11:59:56.089Z,2056.00
2018-06-15T12:00:56.165Z,2056.00
2018-06-15T12:01:56.066Z,2052.00
2018-06-15T12:02:56.085Z,2064.00
2018-06-15T12:03:56.125Z,2060.00
2018-06-15T12:04:56.151Z,2112.00
2018-06-15T12:05:56.159Z,2080.00
2018-06-15T12:06:56.143Z,2092.00
2018-06-15T12:07:56.177Z,2100.00
2018-06-15T12:08:56.117Z,2108.00
2018-06-15T12:09:56.214Z,2108.00
2018-06-15T12:10:56.113Z,2176.00
2018-06-15T12:11:56.126Z,2108.00
2018-06-15T12:12:56.128Z,2152.00
2018-06-15T12:13:56.145Z,1988.00
2018-06-15T12:14:56.234Z,2056.00
2018-06-15T12:15:56.169Z,2064.00
2018-06-15T12:16:56.181Z,2052.00
2018-06-15T12:17:56.164Z,2040.00
2018-06-15T12:18:56.185Z,2036.00
2018-06-15T12:19:56.182Z,2048.00
2018-06-15T12:20:56.233Z,2016.00
2018-06-15T12:21:56.215Z,1844.00
2018-06-15T12:22:56.215Z,1824.00
2018-06-15T12:23:56.190Z,1956.00
2018-06-15T12:24:56.214Z,1904.00
2018-06-15T12:27:17.302Z,1940.00
2018-06-15T12:28:17.286Z,1812.00
2018-06-15T12:29:17.290Z,1856.00
2018-06-15T12:30:17.303Z,1816.00
2018-06-15T12:31:17.289Z,1808.00
2018-06-15T12:32:17.287Z,1772.00
2018-06-15T12:33:17.298Z,1816.00
2018-06-15T12:34:17.334Z,1800.00
2018-06-15T12:35:17.340Z,1788.00
2018-06-15T12:36:17.319Z,1740.00
2018-06-15T12:37:17.353Z,1776.00
2018-06-15T12:38:17.330Z,1764.00
2018-06-15T12:39:17.344Z,1740.00
2018-06-15T12:40:17.348Z,1704.00
2018-06-15T12:41:17.348Z,1576.00
2018-06-15T12:42:17.351Z,1736.00
2018-06-15T12:43:17.377Z,1720.00
2018-06-15T12:44:17.393Z,1760.00